Jerez de la Frontera, Spain
Current Conditions -  °F | °C
As of 8:00 AM on Thursday 23 Oct 2014 (Local Time) from LEJR Reporting Station
Clear Clear  
Wind Chill: 55°   Ceiling: Unl
Heat Index: 55°   Visibility: 6mi
Dew Point: 52°   Wind: 1mph
Humidity: 88%   Direction: NA
Pressure: 30.12"   Gusts: NA
Location:  36.69°N, 6.14°W
Report Text: LEJR 230600Z VRB01KT CAVOK 13/11 Q1020
Loading
Personal Weather Stations






























Interactive Weather Map
Tropical Storm Tracking
New forecast layout! Learn more

10-Day Weather Forecast

Advertisements
Track Severe Weather on mobile